createdAt,value
2024-05-09T00:01:40.745Z,10.92
2024-05-09T00:04:43.953Z,10.90
2024-05-09T00:07:46.278Z,10.91
2024-05-09T00:10:48.620Z,10.90
2024-05-09T00:13:51.029Z,10.91
2024-05-09T00:16:53.320Z,10.90
2024-05-09T00:19:55.720Z,10.93
2024-05-09T00:22:57.632Z,10.91
2024-05-09T00:25:59.704Z,10.92
2024-05-09T00:29:02.148Z,10.91
2024-05-09T00:32:05.214Z,10.92
2024-05-09T00:35:08.228Z,10.92
2024-05-09T00:38:11.089Z,10.91
2024-05-09T00:41:16.432Z,10.92
2024-05-09T00:44:19.859Z,10.93
2024-05-09T00:47:24.171Z,10.92
2024-05-09T00:50:35.466Z,10.94
2024-05-09T00:53:39.663Z,10.94
2024-05-09T00:56:42.611Z,10.94
2024-05-09T00:59:45.004Z,10.92
2024-05-09T01:02:47.259Z,10.94
2024-05-09T01:05:49.063Z,10.94
2024-05-09T01:08:51.257Z,10.97
2024-05-09T01:11:53.419Z,10.96
2024-05-09T01:14:55.157Z,10.94
2024-05-09T01:17:58.108Z,10.94
2024-05-09T01:21:00.077Z,10.94
2024-05-09T01:24:01.941Z,10.94
2024-05-09T01:27:04.323Z,10.92
2024-05-09T01:30:09.456Z,10.91
2024-05-09T01:33:14.776Z,10.90
2024-05-09T01:36:16.656Z,10.91
2024-05-09T01:39:18.406Z,10.93
2024-05-09T01:42:20.557Z,10.92
2024-05-09T01:45:22.258Z,10.90
2024-05-09T01:48:25.064Z,10.90
2024-05-09T01:51:26.942Z,10.90
2024-05-09T01:54:29.098Z,10.88
2024-05-09T01:57:30.833Z,10.87
2024-05-09T02:00:39.505Z,10.86
2024-05-09T02:03:48.200Z,10.83
2024-05-09T02:06:50.490Z,10.83
2024-05-09T02:09:53.330Z,10.82
2024-05-09T02:12:55.065Z,10.82
2024-05-09T02:15:56.899Z,10.76
2024-05-09T02:18:58.722Z,10.78
2024-05-09T02:22:00.609Z,10.77
2024-05-09T02:25:02.850Z,10.74
2024-05-09T02:28:04.988Z,10.74
2024-05-09T02:31:07.570Z,10.75
2024-05-09T02:34:09.396Z,10.73
2024-05-09T02:37:11.630Z,10.72
2024-05-09T02:40:15.025Z,10.72
2024-05-09T02:43:23.508Z,10.71
2024-05-09T02:46:25.710Z,10.72
2024-05-09T02:49:28.019Z,10.71
2024-05-09T02:52:29.828Z,10.71
2024-05-09T02:55:31.935Z,10.69
2024-05-09T02:58:33.674Z,10.72
2024-05-09T03:01:35.556Z,10.71
2024-05-09T03:04:38.874Z,10.71
2024-05-09T03:07:43.835Z,10.71
2024-05-09T03:10:46.123Z,10.72
2024-05-09T03:13:48.382Z,10.70
2024-05-09T03:16:50.350Z,10.69
2024-05-09T03:19:53.406Z,10.67
2024-05-09T03:22:56.892Z,10.68
2024-05-09T03:25:58.916Z,10.64
2024-05-09T03:29:00.710Z,10.69
2024-05-09T03:32:04.139Z,10.67
2024-05-09T03:35:06.943Z,10.67
2024-05-09T03:38:09.553Z,10.66
2024-05-09T03:41:12.653Z,10.63
2024-05-09T03:44:14.873Z,10.62
2024-05-09T03:47:16.827Z,10.62
2024-05-09T03:50:26.135Z,10.60
2024-05-09T03:53:35.519Z,10.60
2024-05-09T03:56:38.096Z,10.58
2024-05-09T03:59:39.945Z,10.55
2024-05-09T04:02:43.784Z,10.55
2024-05-09T04:05:45.994Z,10.54
2024-05-09T04:08:48.114Z,10.54
2024-05-09T04:11:50.420Z,10.54
2024-05-09T04:14:52.321Z,10.52
2024-05-09T04:17:54.758Z,10.54
2024-05-09T04:20:57.027Z,10.54
2024-05-09T04:23:59.291Z,10.53
2024-05-09T04:27:01.075Z,10.53
2024-05-09T04:30:06.178Z,10.53
2024-05-09T04:33:12.384Z,10.53
2024-05-09T04:36:15.897Z,10.54
2024-05-09T04:39:17.651Z,10.53
2024-05-09T04:42:19.419Z,10.53
2024-05-09T04:45:21.621Z,10.56
2024-05-09T04:48:23.520Z,10.58
2024-05-09T04:51:25.361Z,10.58
2024-05-09T04:54:34.261Z,10.59
2024-05-09T04:57:38.204Z,10.58
2024-05-09T05:00:40.934Z,10.57
2024-05-09T05:03:43.849Z,10.56
2024-05-09T05:06:46.184Z,10.58
2024-05-09T05:09:48.926Z,10.61
2024-05-09T05:13:09.872Z,10.64
2024-05-09T05:16:12.629Z,10.64
2024-05-09T05:19:17.532Z,10.64
2024-05-09T05:22:20.087Z,10.68
2024-05-09T05:25:22.222Z,10.69
2024-05-09T05:28:24.696Z,10.70
2024-05-09T05:31:27.260Z,10.70
2024-05-09T05:34:29.485Z,10.74
2024-05-09T05:37:31.968Z,10.78
2024-05-09T05:40:38.320Z,10.80
2024-05-09T05:43:41.640Z,10.83
2024-05-09T05:46:43.385Z,10.84
2024-05-09T05:49:45.568Z,10.88
2024-05-09T05:52:47.904Z,10.94
2024-05-09T05:55:50.232Z,10.99
2024-05-09T05:58:52.510Z,11.04
2024-05-09T06:01:54.798Z,11.09
2024-05-09T06:04:57.886Z,11.11
2024-05-09T06:08:02.596Z,11.15
2024-05-09T06:11:05.062Z,11.20
2024-05-09T06:14:07.021Z,11.21
2024-05-09T06:17:08.980Z,11.26
2024-05-09T06:20:20.156Z,11.31
2024-05-09T06:23:26.410Z,11.37
2024-05-09T06:26:29.388Z,11.43
2024-05-09T06:29:31.784Z,11.49
2024-05-09T06:32:34.236Z,11.46
2024-05-09T06:35:36.808Z,11.55
2024-05-09T06:38:38.934Z,11.59
2024-05-09T06:41:41.239Z,11.63
2024-05-09T06:44:43.122Z,11.68
2024-05-09T06:47:46.190Z,11.71
2024-05-09T06:50:48.876Z,11.80
2024-05-09T06:53:51.989Z,11.89
2024-05-09T06:56:54.226Z,11.94
2024-05-09T06:59:59.758Z,11.99
2024-05-09T07:03:05.460Z,12.02
2024-05-09T07:06:08.322Z,12.10
2024-05-09T07:09:10.134Z,12.20
2024-05-09T07:12:12.547Z,12.26
2024-05-09T07:15:14.879Z,12.32
2024-05-09T07:18:18.463Z,12.37
2024-05-09T07:21:21.893Z,12.43
2024-05-09T07:24:24.199Z,12.52
2024-05-09T07:27:27.976Z,12.57
2024-05-09T07:30:33.603Z,12.65
2024-05-09T07:33:36.913Z,12.70
2024-05-09T07:36:39.797Z,12.73
2024-05-09T07:39:42.615Z,12.81
2024-05-09T07:42:46.130Z,12.88
2024-05-09T07:45:53.102Z,12.93
2024-05-09T07:50:34.885Z,12.97
2024-05-09T07:55:24.190Z,13.09
2024-05-09T07:58:27.691Z,13.14
2024-05-09T08:01:30.174Z,13.18
2024-05-09T08:04:32.561Z,13.26
2024-05-09T08:07:35.790Z,13.30
2024-05-09T08:10:38.095Z,13.39
2024-05-09T08:13:40.006Z,13.48
2024-05-09T08:16:42.251Z,13.55
2024-05-09T08:19:44.589Z,13.57
2024-05-09T08:22:47.447Z,13.66
2024-05-09T08:25:50.309Z,13.69
2024-05-09T08:28:52.582Z,13.66
2024-05-09T08:31:59.183Z,13.71
2024-05-09T08:35:02.033Z,13.83
2024-05-09T08:38:06.304Z,13.92
2024-05-09T08:41:08.490Z,13.98
2024-05-09T08:44:11.771Z,14.03
2024-05-09T08:47:14.021Z,14.08
2024-05-09T08:50:28.788Z,14.11
2024-05-09T08:53:37.894Z,14.12
2024-05-09T08:56:43.796Z,14.14
2024-05-09T08:59:52.105Z,14.13
2024-05-09T09:02:56.214Z,14.16
2024-05-09T09:05:58.282Z,14.19
2024-05-09T09:09:00.554Z,14.23
2024-05-09T09:12:02.868Z,14.21
2024-05-09T09:15:04.919Z,14.24
2024-05-09T09:18:09.668Z,14.25
2024-05-09T09:21:13.840Z,14.31
2024-05-09T09:24:15.611Z,14.34
2024-05-09T09:27:21.811Z,14.40
2024-05-09T09:30:34.664Z,14.44
2024-05-09T09:33:42.972Z,14.51
2024-05-09T09:36:46.719Z,14.57
2024-05-09T09:39:49.458Z,14.63
2024-05-09T09:42:57.875Z,14.70
2024-05-09T09:46:02.036Z,14.76
2024-05-09T09:49:07.050Z,14.83
2024-05-09T09:52:11.397Z,14.91
2024-05-09T09:55:13.604Z,15.04
2024-05-09T09:58:18.637Z,15.13
2024-05-09T10:01:20.579Z,15.23
2024-05-09T10:04:24.249Z,15.31
2024-05-09T10:07:29.686Z,15.44
2024-05-09T10:10:34.678Z,15.51
2024-05-09T10:13:36.779Z,15.60
2024-05-09T10:16:44.971Z,15.70
2024-05-09T10:19:48.238Z,15.80
2024-05-09T10:22:51.011Z,15.88
2024-05-09T10:26:03.896Z,16.00
2024-05-09T10:29:17.090Z,16.09
2024-05-09T10:32:19.736Z,16.19
2024-05-09T10:35:22.762Z,16.21
2024-05-09T10:38:25.201Z,16.23
2024-05-09T10:41:27.362Z,16.24
2024-05-09T10:44:30.627Z,16.27
2024-05-09T10:47:32.680Z,16.25
2024-05-09T10:50:35.451Z,16.28
2024-05-09T10:53:45.527Z,16.36
2024-05-09T10:56:56.029Z,16.42
2024-05-09T11:00:00.228Z,16.46
2024-05-09T11:03:02.075Z,16.56
2024-05-09T11:06:04.399Z,16.59
2024-05-09T11:09:07.022Z,16.64
2024-05-09T11:12:09.628Z,16.70
2024-05-09T11:15:11.999Z,16.75
2024-05-09T11:18:25.922Z,16.83
2024-05-09T11:21:28.969Z,16.90
2024-05-09T11:24:37.685Z,16.97
2024-05-09T11:27:41.271Z,17.00
2024-05-09T11:30:43.693Z,17.10
2024-05-09T11:33:46.754Z,17.18
2024-05-09T11:36:48.849Z,17.23
2024-05-09T11:39:50.819Z,17.28
2024-05-09T11:42:53.388Z,17.39
2024-05-09T11:45:57.675Z,17.47
2024-05-09T11:48:59.899Z,17.54
2024-05-09T11:52:02.008Z,17.63
2024-05-09T11:55:05.183Z,17.78
2024-05-09T11:58:08.447Z,17.86
2024-05-09T12:01:15.106Z,18.00
2024-05-09T12:04:17.250Z,17.99
2024-05-09T12:07:24.789Z,18.13
2024-05-09T12:10:33.192Z,18.21
2024-05-09T12:13:37.277Z,18.24
2024-05-09T12:16:39.170Z,18.34
2024-05-09T12:19:41.083Z,18.46
2024-05-09T12:22:43.357Z,18.59
2024-05-09T12:25:45.158Z,18.66
2024-05-09T12:28:47.029Z,18.74
2024-05-09T12:31:48.879Z,18.80
2024-05-09T12:34:51.269Z,18.87
2024-05-09T12:37:53.459Z,18.90
2024-05-09T12:40:55.290Z,18.93
2024-05-09T12:43:57.090Z,19.01
2024-05-09T12:46:59.909Z,19.10
2024-05-09T12:50:02.027Z,19.17
2024-05-09T12:53:07.912Z,19.18
2024-05-09T12:56:10.219Z,19.19
2024-05-09T12:59:12.986Z,19.21
2024-05-09T13:02:15.890Z,19.24
2024-05-09T13:05:18.439Z,19.22
2024-05-09T13:08:21.034Z,19.11
2024-05-09T13:11:23.260Z,19.03
2024-05-09T13:14:25.527Z,18.94
2024-05-09T13:17:27.835Z,18.90
2024-05-09T13:20:33.560Z,18.90
2024-05-09T13:23:38.037Z,19.08
2024-05-09T13:26:39.919Z,19.40
2024-05-09T13:29:44.263Z,19.76
2024-05-09T13:32:47.081Z,20.01
2024-05-09T13:35:50.740Z,20.16
2024-05-09T13:38:53.611Z,20.15
2024-05-09T13:41:55.961Z,20.05
2024-05-09T13:44:57.881Z,19.87
2024-05-09T13:48:00.148Z,19.70
2024-05-09T13:51:03.222Z,19.64
2024-05-09T13:54:05.746Z,19.77
2024-05-09T13:57:08.355Z,20.06
2024-05-09T14:00:22.899Z,20.36
2024-05-09T14:03:33.468Z,20.65
2024-05-09T14:06:36.570Z,20.92
2024-05-09T14:09:38.522Z,21.21
2024-05-09T14:12:40.355Z,21.45
2024-05-09T14:15:43.557Z,21.67
2024-05-09T14:18:46.051Z,21.63
2024-05-09T14:21:48.588Z,21.45
2024-05-09T14:24:50.499Z,21.16
2024-05-09T14:27:53.291Z,20.90
2024-05-09T14:30:56.830Z,20.85
2024-05-09T14:33:58.804Z,21.00
2024-05-09T14:37:01.362Z,21.30
2024-05-09T14:40:06.953Z,21.62
2024-05-09T14:43:11.222Z,21.86
2024-05-09T14:46:13.365Z,22.08
2024-05-09T14:49:15.668Z,22.23
2024-05-09T14:52:17.718Z,22.37
2024-05-09T14:55:19.546Z,22.50
2024-05-09T14:58:21.390Z,22.64
2024-05-09T15:01:24.979Z,22.63
2024-05-09T15:04:28.621Z,22.49
2024-05-09T15:07:30.974Z,22.25
2024-05-09T15:10:35.767Z,22.13
2024-05-09T15:13:38.810Z,22.19
2024-05-09T15:16:41.059Z,22.17
2024-05-09T15:19:45.380Z,22.09
2024-05-09T15:22:47.595Z,22.17
2024-05-09T15:25:49.812Z,22.34
2024-05-09T15:28:52.083Z,22.54
2024-05-09T15:31:55.895Z,22.73
2024-05-09T15:34:57.758Z,23.03
2024-05-09T15:38:00.145Z,23.18
2024-05-09T15:41:02.081Z,23.42
2024-05-09T15:44:04.483Z,23.56
2024-05-09T15:47:06.811Z,23.63
2024-05-09T15:50:17.083Z,23.66
2024-05-09T15:53:22.739Z,23.63
2024-05-09T15:56:24.495Z,23.63
2024-05-09T15:59:26.360Z,23.53
2024-05-09T16:02:28.640Z,23.41
2024-05-09T16:05:31.512Z,23.26
2024-05-09T16:08:45.150Z,22.89
2024-05-09T16:11:48.116Z,22.61
2024-05-09T16:14:51.902Z,22.42
2024-05-09T16:17:54.968Z,22.27
2024-05-09T16:21:00.343Z,22.11
2024-05-09T16:24:02.341Z,21.92
2024-05-09T16:27:10.131Z,21.79
2024-05-09T16:30:21.232Z,21.57
2024-05-09T16:33:30.186Z,21.33
2024-05-09T16:36:32.347Z,21.14
2024-05-09T16:39:34.466Z,21.01
2024-05-09T16:42:36.382Z,20.81
2024-05-09T16:45:46.245Z,20.64
2024-05-09T16:48:48.421Z,20.46
2024-05-09T16:51:50.356Z,20.21
2024-05-09T16:54:52.384Z,20.02
2024-05-09T16:57:55.895Z,19.85
2024-05-09T17:00:57.965Z,19.73
2024-05-09T17:04:00.185Z,19.64
2024-05-09T17:07:02.380Z,19.54
2024-05-09T17:10:06.768Z,19.45
2024-05-09T17:13:10.692Z,19.34
2024-05-09T17:16:15.697Z,19.29
2024-05-09T17:19:17.888Z,19.20
2024-05-09T17:22:20.831Z,19.05
2024-05-09T17:25:22.967Z,18.93
2024-05-09T17:28:26.197Z,18.83
2024-05-09T17:31:28.871Z,18.78
2024-05-09T17:34:31.347Z,18.67
2024-05-09T17:37:52.294Z,18.48
2024-05-09T17:40:57.964Z,18.43
2024-05-09T17:44:01.024Z,18.35
2024-05-09T17:47:10.895Z,18.24
2024-05-09T17:50:27.242Z,18.07
2024-05-09T17:53:36.230Z,18.00
2024-05-09T17:56:40.561Z,17.85
2024-05-09T17:59:43.102Z,17.77
2024-05-09T18:02:45.433Z,17.65
2024-05-09T18:05:47.950Z,17.53
2024-05-09T18:08:57.243Z,17.40
2024-05-09T18:12:00.270Z,17.27
2024-05-09T18:15:31.777Z,17.16
2024-05-09T18:19:24.541Z,17.02
2024-05-09T18:22:35.207Z,16.85
2024-05-09T18:25:38.809Z,16.68
2024-05-09T18:28:56.590Z,16.51
2024-05-09T18:32:33.289Z,16.37
2024-05-09T18:36:07.417Z,16.21
2024-05-09T18:43:55.900Z,15.74
2024-05-09T18:50:55.031Z,15.41
2024-05-09T18:58:57.733Z,15.07
2024-05-09T19:01:59.637Z,14.95
2024-05-09T19:05:01.598Z,14.80
2024-05-09T19:08:03.756Z,14.66
2024-05-09T19:11:06.758Z,14.53
2024-05-09T19:14:09.068Z,14.41
2024-05-09T19:17:10.996Z,14.28
2024-05-09T19:20:24.681Z,14.17
2024-05-09T19:23:38.385Z,14.02
2024-05-09T19:26:46.035Z,13.89
2024-05-09T19:29:48.748Z,13.82
2024-05-09T19:32:51.129Z,13.71
2024-05-09T19:35:52.994Z,13.60
2024-05-09T19:38:54.922Z,13.49
2024-05-09T19:41:56.747Z,13.38
2024-05-09T19:45:00.878Z,13.25
2024-05-09T19:48:12.075Z,13.16
2024-05-09T19:51:14.247Z,13.04
2024-05-09T19:54:24.026Z,12.96
2024-05-09T19:57:26.292Z,12.83
2024-05-09T20:00:35.730Z,12.76
2024-05-09T20:03:49.932Z,12.64
2024-05-09T20:06:54.957Z,12.56
2024-05-09T20:10:00.117Z,12.46
2024-05-09T20:13:06.924Z,12.37
2024-05-09T20:16:12.904Z,12.29
2024-05-09T20:19:37.821Z,12.19
2024-05-09T20:22:40.045Z,12.08
2024-05-09T20:25:42.253Z,12.03
2024-05-09T20:28:46.276Z,11.95
2024-05-09T20:31:48.211Z,11.86
2024-05-09T20:34:51.792Z,11.80
2024-05-09T20:37:53.955Z,11.68
2024-05-09T20:40:56.257Z,11.66
2024-05-09T20:44:00.631Z,11.59
2024-05-09T20:47:03.255Z,11.52
2024-05-09T20:50:13.702Z,11.46
2024-05-09T20:53:22.134Z,11.41
2024-05-09T20:56:25.093Z,11.32
2024-05-09T20:59:26.804Z,11.26
2024-05-09T21:02:29.233Z,11.22
2024-05-09T21:05:32.623Z,11.15
2024-05-09T21:08:34.562Z,11.10
2024-05-09T21:11:36.377Z,11.03
2024-05-09T21:14:38.172Z,10.98
2024-05-09T21:17:39.950Z,10.90
2024-05-09T21:20:42.389Z,10.83
2024-05-09T21:23:44.368Z,10.79
2024-05-09T21:26:46.765Z,10.72
2024-05-09T21:29:48.531Z,10.67
2024-05-09T21:32:51.405Z,10.62
2024-05-09T21:35:55.496Z,10.57
2024-05-09T21:38:57.274Z,10.48
2024-05-09T21:42:01.910Z,10.46
2024-05-09T21:45:05.092Z,10.41
2024-05-09T21:48:07.549Z,10.37
2024-05-09T21:51:15.396Z,10.32
2024-05-09T21:54:17.230Z,10.27
2024-05-09T21:57:19.059Z,10.21
2024-05-09T22:00:28.967Z,10.17
2024-05-09T22:03:37.328Z,10.12
2024-05-09T22:06:39.131Z,10.04
2024-05-09T22:09:45.533Z,9.99
2024-05-09T22:12:47.445Z,9.94
2024-05-09T22:15:49.257Z,9.90
2024-05-09T22:18:51.642Z,9.84
2024-05-09T22:21:55.493Z,9.79
2024-05-09T22:24:57.337Z,9.79
2024-05-09T22:28:00.707Z,9.73
2024-05-09T22:31:03.159Z,9.70
2024-05-09T22:34:05.164Z,9.63
2024-05-09T22:37:07.092Z,9.62
2024-05-09T22:40:14.911Z,9.59
2024-05-09T22:43:23.127Z,9.55
2024-05-09T22:46:27.145Z,9.50
2024-05-09T22:49:30.025Z,9.48
2024-05-09T22:52:32.352Z,9.43
2024-05-09T22:55:34.615Z,9.40
2024-05-09T22:58:36.602Z,9.34
2024-05-09T23:01:38.481Z,9.31
2024-05-09T23:04:41.032Z,9.26
2024-05-09T23:07:47.907Z,9.23
2024-05-09T23:10:50.036Z,9.20
2024-05-09T23:13:52.243Z,9.16
2024-05-09T23:16:53.995Z,9.12
2024-05-09T23:19:56.159Z,9.09
2024-05-09T23:22:57.882Z,9.05
2024-05-09T23:26:00.123Z,9.01
2024-05-09T23:29:02.335Z,8.99
2024-05-09T23:32:05.670Z,8.94
2024-05-09T23:35:07.964Z,8.93
2024-05-09T23:38:10.300Z,8.87
2024-05-09T23:41:12.125Z,8.85
2024-05-09T23:44:14.288Z,8.80
2024-05-09T23:47:16.595Z,8.76
2024-05-09T23:50:26.325Z,8.71
2024-05-09T23:53:33.130Z,8.65
2024-05-09T23:56:35.285Z,8.63
2024-05-09T23:59:37.023Z,8.58
